sensor_id;sensor_type;location;lat;lon;timestamp;pressure;altitude;pressure_sealevel;temperature;humidity
55010;BME280;40903;51.638;7.528;2023-02-19T00:01:11;101060.31;;;10.23;100.00
55010;BME280;40903;51.638;7.528;2023-02-19T00:03:36;101068.78;;;10.21;100.00
55010;BME280;40903;51.638;7.528;2023-02-19T00:06:06;101073.66;;;10.24;100.00
55010;BME280;40903;51.638;7.528;2023-02-19T00:08:32;101061.97;;;10.19;100.00
55010;BME280;40903;51.638;7.528;2023-02-19T00:11:01;101070.94;;;10.24;100.00
55010;BME280;40903;51.638;7.528;2023-02-19T00:13:27;101069.84;;;10.20;100.00
55010;BME280;40903;51.638;7.528;2023-02-19T00:15:52;101071.50;;;10.21;100.00
55010;BME280;40903;51.638;7.528;2023-02-19T00:18:17;101064.69;;;10.19;100.00
55010;BME280;40903;51.638;7.528;2023-02-19T00:20:42;101073.94;;;10.23;100.00
55010;BME280;40903;51.638;7.528;2023-02-19T00:23:07;101076.69;;;10.18;100.00
55010;BME280;40903;51.638;7.528;2023-02-19T00:25:35;101066.31;;;10.20;100.00
55010;BME280;40903;51.638;7.528;2023-02-19T00:28:00;101066.31;;;10.20;100.00
55010;BME280;40903;51.638;7.528;2023-02-19T00:30:25;101064.63;;;10.29;100.00
55010;BME280;40903;51.638;7.528;2023-02-19T00:32:50;101059.50;;;10.22;100.00
55010;BME280;40903;51.638;7.528;2023-02-19T00:35:15;101047.78;;;10.22;100.00
55010;BME280;40903;51.638;7.528;2023-02-19T00:37:41;101046.13;;;10.26;100.00
55010;BME280;40903;51.638;7.528;2023-02-19T00:40:06;101058.41;;;10.23;100.00
55010;BME280;40903;51.638;7.528;2023-02-19T00:42:31;101049.72;;;10.21;100.00
55010;BME280;40903;51.638;7.528;2023-02-19T00:44:56;101041.53;;;10.21;100.00
55010;BME280;40903;51.638;7.528;2023-02-19T00:47:22;101042.59;;;10.20;100.00
55010;BME280;40903;51.638;7.528;2023-02-19T00:49:47;101039.34;;;10.18;100.00
55010;BME280;40903;51.638;7.528;2023-02-19T00:52:12;101047.50;;;10.18;100.00
55010;BME280;40903;51.638;7.528;2023-02-19T00:54:37;101045.09;;;10.17;100.00
55010;BME280;40903;51.638;7.528;2023-02-19T00:57:02;101046.97;;;10.21;100.00
55010;BME280;40903;51.638;7.528;2023-02-19T00:59:28;101049.72;;;10.21;100.00
55010;BME280;40903;51.638;7.528;2023-02-19T01:01:53;101040.97;;;10.24;100.00
55010;BME280;40903;51.638;7.528;2023-02-19T01:04:18;101049.41;;;10.23;100.00
55010;BME280;40903;51.638;7.528;2023-02-19T01:06:43;101043.97;;;10.23;100.00
55010;BME280;40903;51.638;7.528;2023-02-19T01:09:08;101036.63;;;10.23;100.00
55010;BME280;40903;51.638;7.528;2023-02-19T01:11:34;101045.31;;;10.25;100.00
55010;BME280;40903;51.638;7.528;2023-02-19T01:13:59;101038.78;;;10.26;100.00
55010;BME280;40903;51.638;7.528;2023-02-19T01:16:25;101048.03;;;10.25;100.00
55010;BME280;40903;51.638;7.528;2023-02-19T01:18:51;101049.94;;;10.30;100.00
55010;BME280;40903;51.638;7.528;2023-02-19T01:21:18;101044.50;;;10.25;100.00
55010;BME280;40903;51.638;7.528;2023-02-19T01:23:44;101044.72;;;10.33;100.00
55010;BME280;40903;51.638;7.528;2023-02-19T01:26:11;101052.09;;;10.28;100.00
55010;BME280;40903;51.638;7.528;2023-02-19T01:28:37;101055.13;;;10.26;100.00
55010;BME280;40903;51.638;7.528;2023-02-19T01:31:03;101040.63;;;10.36;100.00
55010;BME280;40903;51.638;7.528;2023-02-19T01:33:28;101043.38;;;10.31;100.00
55010;BME280;40903;51.638;7.528;2023-02-19T01:35:54;101039.56;;;10.27;100.00
55010;BME280;40903;51.638;7.528;2023-02-19T01:38:19;101044.47;;;10.30;100.00
55010;BME280;40903;51.638;7.528;2023-02-19T01:40:44;101040.09;;;10.29;100.00
55010;BME280;40903;51.638;7.528;2023-02-19T01:43:16;101034.13;;;10.27;100.00
55010;BME280;40903;51.638;7.528;2023-02-19T01:45:42;101036.84;;;10.27;100.00
55010;BME280;40903;51.638;7.528;2023-02-19T01:48:11;101037.16;;;10.25;100.00
55010;BME280;40903;51.638;7.528;2023-02-19T01:50:40;101035.78;;;10.23;100.00
55010;BME280;40903;51.638;7.528;2023-02-19T01:53:08;101034.16;;;10.22;100.00
55010;BME280;40903;51.638;7.528;2023-02-19T01:55:36;101032.78;;;10.19;100.00
55010;BME280;40903;51.638;7.528;2023-02-19T01:58:02;101035.53;;;10.19;100.00
55010;BME280;40903;51.638;7.528;2023-02-19T02:00:28;101045.09;;;10.17;100.00
55010;BME280;40903;51.638;7.528;2023-02-19T02:02:53;101044.25;;;10.21;100.00
55010;BME280;40903;51.638;7.528;2023-02-19T02:07:48;101042.38;;;10.17;100.00
55010;BME280;40903;51.638;7.528;2023-02-19T02:10:32;101042.63;;;10.15;100.00
55010;BME280;40903;51.638;7.528;2023-02-19T02:12:58;101047.56;;;10.13;100.00
55010;BME280;40903;51.638;7.528;2023-02-19T02:15:23;101044.00;;;10.13;100.00
55010;BME280;40903;51.638;7.528;2023-02-19T02:17:56;101049.44;;;10.13;100.00
55010;BME280;40903;51.638;7.528;2023-02-19T02:25:39;101041.88;;;10.05;100.00
55010;BME280;40903;51.638;7.528;2023-02-19T02:30:43;101056.59;;;10.04;100.00
55010;BME280;40903;51.638;7.528;2023-02-19T02:36:04;101059.31;;;10.04;100.00
55010;BME280;40903;51.638;7.528;2023-02-19T02:38:31;101058.47;;;10.03;100.00
55010;BME280;40903;51.638;7.528;2023-02-19T02:40:58;101051.94;;;9.99;100.00
55010;BME280;40903;51.638;7.528;2023-02-19T02:43:23;101058.22;;;10.00;100.00
55010;BME280;40903;51.638;7.528;2023-02-19T02:45:49;101062.56;;;9.96;100.00
55010;BME280;40903;51.638;7.528;2023-02-19T02:48:25;101054.38;;;9.96;100.00
55010;BME280;40903;51.638;7.528;2023-02-19T02:53:22;101056.31;;;9.90;100.00
55010;BME280;40903;51.638;7.528;2023-02-19T02:56:08;101058.50;;;9.88;100.00
55010;BME280;40903;51.638;7.528;2023-02-19T02:58:34;101064.25;;;9.87;100.00
55010;BME280;40903;51.638;7.528;2023-02-19T03:01:01;101056.34;;;9.85;100.00
55010;BME280;40903;51.638;7.528;2023-02-19T03:03:46;101055.81;;;9.83;100.00
55010;BME280;40903;51.638;7.528;2023-02-19T03:06:13;101057.47;;;9.79;100.00
55010;BME280;40903;51.638;7.528;2023-02-19T03:08:40;101050.91;;;9.80;100.00
55010;BME280;40903;51.638;7.528;2023-02-19T03:11:08;101047.91;;;9.82;100.00
55010;BME280;40903;51.638;7.528;2023-02-19T03:13:54;101051.19;;;9.79;100.00
55010;BME280;40903;51.638;7.528;2023-02-19T03:16:41;101056.38;;;9.70;100.00
55010;BME280;40903;51.638;7.528;2023-02-19T03:19:27;101059.94;;;9.71;100.00
55010;BME280;40903;51.638;7.528;2023-02-19T03:24:40;101057.75;;;9.63;100.00
55010;BME280;40903;51.638;7.528;2023-02-19T03:27:26;101070.28;;;9.64;100.00
55010;BME280;40903;51.638;7.528;2023-02-19T03:29:53;101073.84;;;9.65;100.00
55010;BME280;40903;51.638;7.528;2023-02-19T03:32:32;101071.09;;;9.65;100.00
55010;BME280;40903;51.638;7.528;2023-02-19T03:35:01;101083.06;;;9.68;100.00
55010;BME280;40903;51.638;7.528;2023-02-19T03:37:30;101078.72;;;9.68;100.00
55010;BME280;40903;51.638;7.528;2023-02-19T03:39:56;101085.81;;;9.64;100.00
55010;BME280;40903;51.638;7.528;2023-02-19T03:42:35;101081.72;;;9.61;100.00
55010;BME280;40903;51.638;7.528;2023-02-19T03:47:32;101093.16;;;9.63;100.00
55010;BME280;40903;51.638;7.528;2023-02-19T03:50:20;101091.25;;;9.64;100.00
55010;BME280;40903;51.638;7.528;2023-02-19T03:53:28;101099.16;;;9.60;100.00
55010;BME280;40903;51.638;7.528;2023-02-19T03:58:07;101094.81;;;9.59;100.00
55010;BME280;40903;51.638;7.528;2023-02-19T04:00:50;101108.41;;;9.59;100.00
55010;BME280;40903;51.638;7.528;2023-02-19T04:03:19;101112.78;;;9.55;100.00
55010;BME280;40903;51.638;7.528;2023-02-19T04:05:46;101110.31;;;9.54;100.00
55010;BME280;40903;51.638;7.528;2023-02-19T04:08:14;101114.66;;;9.55;100.00
55010;BME280;40903;51.638;7.528;2023-02-19T04:10:40;101120.41;;;9.58;100.00
55010;BME280;40903;51.638;7.528;2023-02-19T04:13:08;101128.81;;;9.57;100.00
55010;BME280;40903;51.638;7.528;2023-02-19T04:15:35;101126.41;;;9.55;100.00
55010;BME280;40903;51.638;7.528;2023-02-19T04:18:05;101127.50;;;9.54;100.00
55010;BME280;40903;51.638;7.528;2023-02-19T04:20:35;101132.94;;;9.54;100.00
55010;BME280;40903;51.638;7.528;2023-02-19T04:23:03;101134.28;;;9.52;100.00
55010;BME280;40903;51.638;7.528;2023-02-19T04:25:28;101139.44;;;9.53;100.00
55010;BME280;40903;51.638;7.528;2023-02-19T04:27:54;101140.53;;;9.57;100.00
55010;BME280;40903;51.638;7.528;2023-02-19T04:30:20;101155.50;;;9.55;100.00
55010;BME280;40903;51.638;7.528;2023-02-19T04:32:45;101153.63;;;9.55;100.00
55010;BME280;40903;51.638;7.528;2023-02-19T04:35:10;101154.44;;;9.51;100.00
55010;BME280;40903;51.638;7.528;2023-02-19T04:37:35;101157.16;;;9.51;100.00
55010;BME280;40903;51.638;7.528;2023-02-19T04:40:01;101159.03;;;9.50;100.00
55010;BME280;40903;51.638;7.528;2023-02-19T04:42:26;101161.75;;;9.50;100.00
55010;BME280;40903;51.638;7.528;2023-02-19T04:44:51;101156.59;;;9.49;100.00
55010;BME280;40903;51.638;7.528;2023-02-19T04:47:16;101167.75;;;9.47;100.00
55010;BME280;40903;51.638;7.528;2023-02-19T04:49:42;101174.56;;;9.50;100.00
55010;BME280;40903;51.638;7.528;2023-02-19T04:52:08;101180.81;;;9.50;100.00
55010;BME280;40903;51.638;7.528;2023-02-19T04:54:33;101175.13;;;9.52;100.00
55010;BME280;40903;51.638;7.528;2023-02-19T04:56:58;101174.28;;;9.51;100.00
55010;BME280;40903;51.638;7.528;2023-02-19T04:59:23;101185.72;;;9.48;100.00
55010;BME280;40903;51.638;7.528;2023-02-19T05:01:48;101178.91;;;9.46;100.00
55010;BME280;40903;51.638;7.528;2023-02-19T05:04:14;101183.81;;;9.44;100.00
55010;BME280;40903;51.638;7.528;2023-02-19T05:06:39;101181.63;;;9.46;100.00
55010;BME280;40903;51.638;7.528;2023-02-19T05:09:04;101195.53;;;9.44;100.00
55010;BME280;40903;51.638;7.528;2023-02-19T05:11:29;101202.88;;;9.44;100.00
55010;BME280;40903;51.638;7.528;2023-02-19T05:13:54;101209.41;;;9.43;100.00
55010;BME280;40903;51.638;7.528;2023-02-19T05:16:20;101216.22;;;9.40;100.00
55010;BME280;40903;51.638;7.528;2023-02-19T05:18:45;101213.50;;;9.40;100.00
55010;BME280;40903;51.638;7.528;2023-02-19T05:21:11;101219.19;;;9.44;100.00
55010;BME280;40903;51.638;7.528;2023-02-19T05:23:36;101209.41;;;9.48;100.00
55010;BME280;40903;51.638;7.528;2023-02-19T05:26:20;101222.75;;;9.49;100.00
55010;BME280;40903;51.638;7.528;2023-02-19T05:28:47;101221.13;;;9.48;100.00
55010;BME280;40903;51.638;7.528;2023-02-19T05:31:12;101224.38;;;9.45;100.00
55010;BME280;40903;51.638;7.528;2023-02-19T05:33:38;101232.28;;;9.47;100.00
55010;BME280;40903;51.638;7.528;2023-02-19T05:36:04;101237.16;;;9.45;100.00
55010;BME280;40903;51.638;7.528;2023-02-19T05:38:30;101232.81;;;9.44;100.00
55010;BME280;40903;51.638;7.528;2023-02-19T05:40:55;101238.78;;;9.41;100.00
55010;BME280;40903;51.638;7.528;2023-02-19T05:43:30;101234.44;;;9.40;100.00
55010;BME280;40903;51.638;7.528;2023-02-19T05:45:57;101237.41;;;9.38;100.00
55010;BME280;40903;51.638;7.528;2023-02-19T05:48:22;101246.13;;;9.35;100.00
55010;BME280;40903;51.638;7.528;2023-02-19T05:50:47;101239.88;;;9.40;100.00
55010;BME280;40903;51.638;7.528;2023-02-19T05:53:12;101242.31;;;9.36;100.00
55010;BME280;40903;51.638;7.528;2023-02-19T05:55:37;101246.97;;;9.36;100.00
55010;BME280;40903;51.638;7.528;2023-02-19T05:58:03;101252.41;;;9.36;100.00
55010;BME280;40903;51.638;7.528;2023-02-19T06:00:28;101249.41;;;9.37;100.00
55010;BME280;40903;51.638;7.528;2023-02-19T06:02:53;101258.66;;;9.36;100.00
55010;BME280;40903;51.638;7.528;2023-02-19T06:05:19;101255.66;;;9.38;100.00
55010;BME280;40903;51.638;7.528;2023-02-19T06:07:44;101258.94;;;9.35;100.00
55010;BME280;40903;51.638;7.528;2023-02-19T06:10:10;101266.00;;;9.36;100.00
55010;BME280;40903;51.638;7.528;2023-02-19T06:12:36;101265.72;;;9.32;100.00
55010;BME280;40903;51.638;7.528;2023-02-19T06:15:02;101261.38;;;9.31;100.00
55010;BME280;40903;51.638;7.528;2023-02-19T06:17:28;101273.88;;;9.32;100.00
55010;BME280;40903;51.638;7.528;2023-02-19T06:19:53;101273.88;;;9.32;100.00
55010;BME280;40903;51.638;7.528;2023-02-19T06:22:19;101269.00;;;9.29;100.00
55010;BME280;40903;51.638;7.528;2023-02-19T06:24:44;101280.97;;;9.28;100.00
55010;BME280;40903;51.638;7.528;2023-02-19T06:27:10;101278.53;;;9.32;100.00
55010;BME280;40903;51.638;7.528;2023-02-19T06:29:36;101282.84;;;9.28;100.00
55010;BME280;40903;51.638;7.528;2023-02-19T06:32:04;101280.41;;;9.26;100.00
55010;BME280;40903;51.638;7.528;2023-02-19T06:34:30;101291.56;;;9.25;100.00
55010;BME280;40903;51.638;7.528;2023-02-19T06:36:55;101293.47;;;9.24;100.00
55010;BME280;40903;51.638;7.528;2023-02-19T06:39:20;101284.72;;;9.22;100.00
55010;BME280;40903;51.638;7.528;2023-02-19T06:41:45;101292.66;;;9.24;100.00
55010;BME280;40903;51.638;7.528;2023-02-19T06:44:11;101302.19;;;9.26;100.00
55010;BME280;40903;51.638;7.528;2023-02-19T06:46:36;101292.09;;;9.27;100.00
55010;BME280;40903;51.638;7.528;2023-02-19T06:49:04;101297.00;;;9.25;100.00
55010;BME280;40903;51.638;7.528;2023-02-19T06:51:30;101304.88;;;9.21;100.00
55010;BME280;40903;51.638;7.528;2023-02-19T06:53:56;101307.09;;;9.24;100.00
55010;BME280;40903;51.638;7.528;2023-02-19T06:56:29;101306.78;;;9.26;100.00
55010;BME280;40903;51.638;7.528;2023-02-19T06:58:56;101312.53;;;9.24;100.00
55010;BME280;40903;51.638;7.528;2023-02-19T07:01:23;101316.31;;;9.23;100.00
55010;BME280;40903;51.638;7.528;2023-02-19T07:03:48;101321.50;;;9.25;100.00
55010;BME280;40903;51.638;7.528;2023-02-19T07:06:14;101327.75;;;9.25;100.00
55010;BME280;40903;51.638;7.528;2023-02-19T07:08:40;101334.53;;;9.23;100.00
55010;BME280;40903;51.638;7.528;2023-02-19T07:11:08;101337.25;;;9.23;100.00
55010;BME280;40903;51.638;7.528;2023-02-19T07:13:34;101349.25;;;9.22;100.00
55010;BME280;40903;51.638;7.528;2023-02-19T07:16:00;101354.41;;;9.23;100.00
55010;BME280;40903;51.638;7.528;2023-02-19T07:18:26;101366.38;;;9.22;100.00
55010;BME280;40903;51.638;7.528;2023-02-19T07:20:51;101371.78;;;9.17;100.00
55010;BME280;40903;51.638;7.528;2023-02-19T07:23:16;101371.81;;;9.22;100.00
55010;BME280;40903;51.638;7.528;2023-02-19T07:25:41;101371.53;;;9.19;100.00
55010;BME280;40903;51.638;7.528;2023-02-19T07:28:07;101371.25;;;9.20;100.00
55010;BME280;40903;51.638;7.528;2023-02-19T07:30:32;101370.19;;;9.21;100.00
55010;BME280;40903;51.638;7.528;2023-02-19T07:32:57;101379.97;;;9.22;100.00
55010;BME280;40903;51.638;7.528;2023-02-19T07:35:22;101385.47;;;9.27;100.00
55010;BME280;40903;51.638;7.528;2023-02-19T07:37:48;101394.97;;;9.30;100.00
55010;BME280;40903;51.638;7.528;2023-02-19T07:40:13;101399.91;;;9.33;100.00
55010;BME280;40903;51.638;7.528;2023-02-19T07:42:38;101406.16;;;9.33;100.00
55010;BME280;40903;51.638;7.528;2023-02-19T07:45:03;101409.97;;;9.32;100.00
55010;BME280;40903;51.638;7.528;2023-02-19T07:47:29;101418.72;;;9.39;100.00
55010;BME280;40903;51.638;7.528;2023-02-19T07:49:54;101416.00;;;9.39;100.00
55010;BME280;40903;51.638;7.528;2023-02-19T07:52:19;101415.41;;;9.37;100.00
55010;BME280;40903;51.638;7.528;2023-02-19T07:54:44;101420.06;;;9.42;100.00
55010;BME280;40903;51.638;7.528;2023-02-19T07:57:09;101423.63;;;9.42;100.00
55010;BME280;40903;51.638;7.528;2023-02-19T07:59:35;101424.19;;;9.44;100.00
55010;BME280;40903;51.638;7.528;2023-02-19T08:02:00;101421.75;;;9.48;100.00
55010;BME280;40903;51.638;7.528;2023-02-19T08:04:45;101420.38;;;9.45;100.00
55010;BME280;40903;51.638;7.528;2023-02-19T08:07:11;101438.34;;;9.46;100.00
55010;BME280;40903;51.638;7.528;2023-02-19T08:09:36;101443.78;;;9.46;100.00
55010;BME280;40903;51.638;7.528;2023-02-19T08:12:02;101436.41;;;9.42;100.00
55010;BME280;40903;51.638;7.528;2023-02-19T08:14:45;101447.59;;;9.40;100.00
55010;BME280;40903;51.638;7.528;2023-02-19T08:17:10;101458.47;;;9.40;100.00
55010;BME280;40903;51.638;7.528;2023-02-19T08:19:36;101455.16;;;9.38;100.00
55010;BME280;40903;51.638;7.528;2023-02-19T08:22:01;101446.44;;;9.36;100.00
55010;BME280;40903;51.638;7.528;2023-02-19T08:24:26;101453.50;;;9.32;100.00
55010;BME280;40903;51.638;7.528;2023-02-19T08:26:51;101457.06;;;9.33;100.00
55010;BME280;40903;51.638;7.528;2023-02-19T08:29:16;101454.34;;;9.33;100.00
55010;BME280;40903;51.638;7.528;2023-02-19T08:31:42;101456.22;;;9.32;100.00
55010;BME280;40903;51.638;7.528;2023-02-19T08:34:07;101456.22;;;9.32;100.00
55010;BME280;40903;51.638;7.528;2023-02-19T08:36:32;101460.59;;;9.33;100.00
55010;BME280;40903;51.638;7.528;2023-02-19T08:38:57;101460.09;;;9.41;100.00
55010;BME280;40903;51.638;7.528;2023-02-19T08:41:24;101474.75;;;9.35;100.00
55010;BME280;40903;51.638;7.528;2023-02-19T08:43:49;101474.75;;;9.35;100.00
55010;BME280;40903;51.638;7.528;2023-02-19T08:46:14;101466.06;;;9.38;100.00
55010;BME280;40903;51.638;7.528;2023-02-19T08:48:39;101469.06;;;9.42;100.00
55010;BME280;40903;51.638;7.528;2023-02-19T08:51:06;101478.06;;;9.42;100.00
55010;BME280;40903;51.638;7.528;2023-02-19T08:53:32;101478.06;;;9.42;100.00
55010;BME280;40903;51.638;7.528;2023-02-19T08:55:58;101475.38;;;9.47;100.00
55010;BME280;40903;51.638;7.528;2023-02-19T08:58:23;101471.88;;;9.57;100.00
55010;BME280;40903;51.638;7.528;2023-02-19T09:00:50;101470.84;;;9.63;100.00
55010;BME280;40903;51.638;7.528;2023-02-19T09:03:15;101482.81;;;9.67;100.00
55010;BME280;40903;51.638;7.528;2023-02-19T09:05:40;101492.63;;;9.72;100.00
55010;BME280;40903;51.638;7.528;2023-02-19T09:08:06;101501.94;;;9.76;100.00
55010;BME280;40903;51.638;7.528;2023-02-19T09:10:31;101496.44;;;9.71;100.00
55010;BME280;40903;51.638;7.528;2023-02-19T09:12:56;101508.19;;;9.72;100.00
55010;BME280;40903;51.638;7.528;2023-02-19T09:15:21;101502.50;;;9.78;100.00
55010;BME280;40903;51.638;7.528;2023-02-19T09:17:50;101503.59;;;9.82;100.00
55010;BME280;40903;51.638;7.528;2023-02-19T09:20:16;101513.16;;;9.85;100.00
55010;BME280;40903;51.638;7.528;2023-02-19T09:22:41;101522.41;;;9.84;100.00
55010;BME280;40903;51.638;7.528;2023-02-19T09:25:06;101524.84;;;9.85;100.00
55010;BME280;40903;51.638;7.528;2023-02-19T09:27:31;101527.31;;;9.87;100.00
55010;BME280;40903;51.638;7.528;2023-02-19T09:29:57;101524.06;;;9.95;100.00
55010;BME280;40903;51.638;7.528;2023-02-19T09:32:22;101529.59;;;10.05;100.00
55010;BME280;40903;51.638;7.528;2023-02-19T09:34:48;101541.09;;;10.17;100.00
55010;BME280;40903;51.638;7.528;2023-02-19T09:37:13;101531.84;;;10.28;100.00
55010;BME280;40903;51.638;7.528;2023-02-19T09:39:38;101540.03;;;10.33;100.00
55010;BME280;40903;51.638;7.528;2023-02-19T09:42:14;101534.31;;;10.34;100.00
55010;BME280;40903;51.638;7.528;2023-02-19T09:44:42;101536.78;;;10.36;100.00
55010;BME280;40903;51.638;7.528;2023-02-19T09:47:15;101539.75;;;10.34;100.00
55010;BME280;40903;51.638;7.528;2023-02-19T09:49:42;101553.13;;;10.36;100.00
55010;BME280;40903;51.638;7.528;2023-02-19T09:54:45;101570.03;;;10.33;100.00
55010;BME280;40903;51.638;7.528;2023-02-19T09:57:12;101573.31;;;10.30;100.00
55010;BME280;40903;51.638;7.528;2023-02-19T09:59:39;101583.13;;;10.31;100.00
55010;BME280;40903;51.638;7.528;2023-02-19T10:02:17;101580.38;;;10.31;100.00
55010;BME280;40903;51.638;7.528;2023-02-19T10:04:44;101587.72;;;10.30;100.00
55010;BME280;40903;51.638;7.528;2023-02-19T10:07:11;101597.56;;;10.31;100.00
55010;BME280;40903;51.638;7.528;2023-02-19T10:09:37;101599.47;;;10.31;100.00
55010;BME280;40903;51.638;7.528;2023-02-19T10:12:02;101610.34;;;10.26;100.00
55010;BME280;40903;51.638;7.528;2023-02-19T10:16:58;101613.03;;;10.16;100.00
55010;BME280;40903;51.638;7.528;2023-02-19T10:19:24;101629.31;;;10.06;100.00
55010;BME280;40903;51.638;7.528;2023-02-19T10:21:50;101648.84;;;9.93;100.00
55010;BME280;40903;51.638;7.528;2023-02-19T10:24:19;101662.38;;;9.83;100.00
55010;BME280;40903;51.638;7.528;2023-02-19T10:26:45;101666.91;;;9.68;100.00
55010;BME280;40903;51.638;7.528;2023-02-19T10:29:10;101688.81;;;9.46;100.00
55010;BME280;40903;51.638;7.528;2023-02-19T10:31:35;101691.03;;;9.23;100.00
55010;BME280;40903;51.638;7.528;2023-02-19T10:34:01;101684.19;;;9.20;100.00
55010;BME280;40903;51.638;7.528;2023-02-19T10:36:35;101684.72;;;9.17;100.00
55010;BME280;40903;51.638;7.528;2023-02-19T10:39:02;101682.56;;;9.19;100.00
55010;BME280;40903;51.638;7.528;2023-02-19T10:41:31;101689.13;;;9.23;100.00
55010;BME280;40903;51.638;7.528;2023-02-19T10:46:30;101701.41;;;9.26;100.00
55010;BME280;40903;51.638;7.528;2023-02-19T10:48:57;101701.69;;;9.24;100.00
55010;BME280;40903;51.638;7.528;2023-02-19T10:51:29;101713.13;;;9.26;100.00
55010;BME280;40903;51.638;7.528;2023-02-19T10:54:03;101727.31;;;9.33;100.00
55010;BME280;40903;51.638;7.528;2023-02-19T10:56:29;101734.09;;;9.31;100.00
55010;BME280;40903;51.638;7.528;2023-02-19T10:58:55;101731.00;;;9.22;100.00
55010;BME280;40903;51.638;7.528;2023-02-19T11:01:37;101738.91;;;9.19;100.00
55010;BME280;40903;51.638;7.528;2023-02-19T11:04:16;101744.94;;;9.26;100.00
55010;BME280;40903;51.638;7.528;2023-02-19T11:06:42;101732.22;;;9.31;100.00
55010;BME280;40903;51.638;7.528;2023-02-19T11:09:15;101739.34;;;9.37;100.00
55010;BME280;40903;51.638;7.528;2023-02-19T11:11:44;101742.56;;;9.34;100.00
55010;BME280;40903;51.638;7.528;2023-02-19T11:14:15;101742.84;;;9.33;100.00
55010;BME280;40903;51.638;7.528;2023-02-19T11:16:43;101748.38;;;9.16;100.00
55010;BME280;40903;51.638;7.528;2023-02-19T11:19:22;101743.97;;;9.10;100.00
55010;BME280;40903;51.638;7.528;2023-02-19T11:21:48;101748.00;;;9.08;100.00
55010;BME280;40903;51.638;7.528;2023-02-19T11:24:25;101744.53;;;9.12;100.00
55010;BME280;40903;51.638;7.528;2023-02-19T11:26:52;101739.47;;;9.21;100.00
55010;BME280;40903;51.638;7.528;2023-02-19T11:29:19;101745.09;;;9.14;100.00
55010;BME280;40903;51.638;7.528;2023-02-19T11:31:47;101758.19;;;9.17;100.00
55010;BME280;40903;51.638;7.528;2023-02-19T11:36:38;101749.09;;;9.07;100.00
55010;BME280;40903;51.638;7.528;2023-02-19T11:41:48;101751.06;;;9.11;100.00
55010;BME280;40903;51.638;7.528;2023-02-19T11:49:36;101742.34;;;9.09;100.00
55010;BME280;40903;51.638;7.528;2023-02-19T11:54:53;101748.59;;;9.10;100.00
55010;BME280;40903;51.638;7.528;2023-02-19T11:57:29;101745.63;;;9.11;100.00
55010;BME280;40903;51.638;7.528;2023-02-19T12:00:01;101744.25;;;9.14;100.00
55010;BME280;40903;51.638;7.528;2023-02-19T12:07:45;101748.38;;;9.16;100.00
55010;BME280;40903;51.638;7.528;2023-02-19T12:13:22;101751.06;;;9.11;100.00
55010;BME280;40903;51.638;7.528;2023-02-19T12:18:21;101753.81;;;9.16;100.00
55010;BME280;40903;51.638;7.528;2023-02-19T12:28:30;101749.41;;;9.37;100.00
55010;BME280;40903;51.638;7.528;2023-02-19T12:34:15;101751.44;;;9.51;100.00
55010;BME280;40903;51.638;7.528;2023-02-19T12:44:23;101758.19;;;9.70;100.00
55010;BME280;40903;51.638;7.528;2023-02-19T12:46:54;101754.63;;;9.69;100.00
55010;BME280;40903;51.638;7.528;2023-02-19T12:49:26;101762.28;;;9.72;100.00
55010;BME280;40903;51.638;7.528;2023-02-19T12:52:27;101772.66;;;9.75;100.00
55010;BME280;40903;51.638;7.528;2023-02-19T12:54:46;101782.50;;;9.76;100.00
55010;BME280;40903;51.638;7.528;2023-02-19T12:57:17;101775.38;;;9.75;100.00
55010;BME280;40903;51.638;7.528;2023-02-19T12:59:47;101782.97;;;9.73;100.00
55010;BME280;40903;51.638;7.528;2023-02-19T13:12:48;101781.69;;;9.50;100.00
55010;BME280;40903;51.638;7.528;2023-02-19T13:15:16;101779.19;;;9.22;100.00
55010;BME280;40903;51.638;7.528;2023-02-19T13:17:50;101783.31;;;9.24;100.00
55010;BME280;40903;51.638;7.528;2023-02-19T13:20:30;101782.25;;;9.25;100.00
55010;BME280;40903;51.638;7.528;2023-02-19T13:23:06;101782.16;;;9.20;100.00
55010;BME280;40903;51.638;7.528;2023-02-19T13:26:07;101791.59;;;9.13;100.00
55010;BME280;40903;51.638;7.528;2023-02-19T13:36:28;101798.88;;;9.07;100.00
55010;BME280;40903;51.638;7.528;2023-02-19T13:38:53;101800.03;;;9.11;100.00
55010;BME280;40903;51.638;7.528;2023-02-19T13:41:28;101800.03;;;9.11;100.00
55010;BME280;40903;51.638;7.528;2023-02-19T13:44:05;101807.13;;;9.12;100.00
55010;BME280;40903;51.638;7.528;2023-02-19T13:46:36;101804.63;;;9.11;100.00
55010;BME280;40903;51.638;7.528;2023-02-19T13:52:00;101809.88;;;9.17;100.00
55010;BME280;40903;51.638;7.528;2023-02-19T13:54:30;101814.81;;;9.20;100.00
55010;BME280;40903;51.638;7.528;2023-02-19T13:59:41;101827.66;;;9.25;100.00
55010;BME280;40903;51.638;7.528;2023-02-19T14:04:48;101837.22;;;9.27;100.00
55010;BME280;40903;51.638;7.528;2023-02-19T14:14:44;101834.19;;;9.24;100.00
55010;BME280;40903;51.638;7.528;2023-02-19T14:25:08;101853.81;;;9.26;100.00
55010;BME280;40903;51.638;7.528;2023-02-19T14:27:38;101856.00;;;9.29;100.00
55010;BME280;40903;51.638;7.528;2023-02-19T14:30:04;101863.28;;;9.23;100.00
55010;BME280;40903;51.638;7.528;2023-02-19T14:32:29;101857.03;;;9.23;100.00
55010;BME280;40903;51.638;7.528;2023-02-19T14:34:54;101864.69;;;9.26;100.00
55010;BME280;40903;51.638;7.528;2023-02-19T14:37:22;101855.22;;;9.28;100.00
55010;BME280;40903;51.638;7.528;2023-02-19T14:39:49;101857.41;;;9.31;100.00
55010;BME280;40903;51.638;7.528;2023-02-19T14:42:18;101861.22;;;9.30;100.00
55010;BME280;40903;51.638;7.528;2023-02-19T14:44:49;101856.53;;;9.26;100.00
55010;BME280;40903;51.638;7.528;2023-02-19T14:47:16;101853.81;;;9.26;100.00